createdAt,value
2023-01-12T00:01:58.652Z,100312.08
2023-01-12T00:04:26.971Z,100310.31
2023-01-12T00:06:55.153Z,100314.43
2023-01-12T00:09:23.226Z,100311.30
2023-01-12T00:11:51.609Z,100315.25
2023-01-12T00:14:19.879Z,100318.34
2023-01-12T00:16:47.880Z,100318.50
2023-01-12T00:19:37.043Z,100320.67
2023-01-12T00:22:12.488Z,100317.36
2023-01-12T00:24:44.172Z,100318.19
2023-01-12T00:27:15.750Z,100326.24
2023-01-12T00:29:44.410Z,100328.96
2023-01-12T00:32:24.621Z,100326.88
2023-01-12T00:35:13.386Z,100326.70
2023-01-12T00:37:41.437Z,100326.52
2023-01-12T00:40:10.533Z,100330.64
2023-01-12T00:43:15.690Z,100336.52
2023-01-12T00:45:43.706Z,100336.52
2023-01-12T00:48:12.837Z,100331.99
2023-01-12T00:50:40.911Z,100332.36
2023-01-12T00:53:08.980Z,100335.30
2023-01-12T00:55:37.220Z,100325.80
2023-01-12T00:58:05.739Z,100329.76
2023-01-12T01:00:33.809Z,100334.06
2023-01-12T01:03:02.041Z,100332.16
2023-01-12T01:05:48.734Z,100336.33
2023-01-12T01:08:17.375Z,100335.66
2023-01-12T01:10:46.881Z,100335.66
2023-01-12T01:13:14.869Z,100349.27
2023-01-12T01:15:47.223Z,100350.42
2023-01-12T01:18:15.599Z,100342.95
2023-01-12T01:20:47.160Z,100341.86
2023-01-12T01:23:15.227Z,100334.76
2023-01-12T01:25:43.297Z,100333.48
2023-01-12T01:28:30.233Z,100339.55
2023-01-12T01:31:07.251Z,100337.27
2023-01-12T01:33:37.403Z,100341.03
2023-01-12T01:36:06.080Z,100337.73
2023-01-12T01:38:34.577Z,100335.65
2023-01-12T01:41:03.403Z,100333.55
2023-01-12T01:44:06.593Z,100329.42
2023-01-12T01:46:44.276Z,100337.92
2023-01-12T01:49:33.112Z,100332.39
2023-01-12T01:52:05.360Z,100333.27
2023-01-12T01:54:42.976Z,100340.70
2023-01-12T01:57:13.304Z,100341.19
2023-01-12T01:59:47.413Z,100339.61
2023-01-12T02:02:35.431Z,100345.13
2023-01-12T02:05:03.938Z,100342.21
2023-01-12T02:07:33.856Z,100339.09
2023-01-12T02:10:02.640Z,100341.48
2023-01-12T02:12:49.550Z,100336.27
2023-01-12T02:15:37.296Z,100331.41
2023-01-12T02:18:20.815Z,100329.33
2023-01-12T02:20:57.755Z,100331.91
2023-01-12T02:23:49.521Z,100330.01
2023-01-12T02:26:37.148Z,100327.06
2023-01-12T02:29:28.654Z,100327.41
2023-01-12T02:32:19.768Z,100326.55
2023-01-12T02:35:10.884Z,100332.80
2023-01-12T02:38:10.506Z,100336.25
2023-01-12T02:40:59.542Z,100335.39
2023-01-12T02:43:30.368Z,100339.41
2023-01-12T02:46:13.274Z,100344.83
2023-01-12T02:48:59.927Z,100350.19
2023-01-12T02:51:34.414Z,100350.20
2023-01-12T02:54:11.107Z,100352.94
2023-01-12T02:56:46.273Z,100349.43
2023-01-12T02:59:21.912Z,100345.27
2023-01-12T03:01:59.707Z,100338.55
2023-01-12T03:04:30.297Z,100339.11
2023-01-12T03:06:58.477Z,100346.60
2023-01-12T03:09:45.569Z,100353.39
2023-01-12T03:12:20.424Z,100354.27
2023-01-12T03:14:51.600Z,100349.11
2023-01-12T03:17:32.060Z,100346.52
2023-01-12T03:20:24.606Z,100349.09
2023-01-12T03:22:58.709Z,100355.98
2023-01-12T03:25:31.509Z,100357.15
2023-01-12T03:28:03.824Z,100363.36
2023-01-12T03:30:37.795Z,100364.95
2023-01-12T03:33:07.629Z,100364.59
2023-01-12T03:35:41.105Z,100369.55
2023-01-12T03:38:24.533Z,100365.39
2023-01-12T03:41:08.921Z,100357.77
2023-01-12T03:44:05.111Z,100358.26
2023-01-12T03:46:54.630Z,100352.84
2023-01-12T03:49:33.721Z,100354.52
2023-01-12T03:52:22.575Z,100356.22
2023-01-12T03:54:54.059Z,100353.59
2023-01-12T03:57:22.812Z,100346.66
2023-01-12T03:59:50.997Z,100344.91
2023-01-12T04:02:37.617Z,100338.83
2023-01-12T04:05:08.539Z,100340.59
2023-01-12T04:07:36.699Z,100332.96
2023-01-12T04:10:05.569Z,100330.89
2023-01-12T04:12:33.667Z,100322.64
2023-01-12T04:15:20.603Z,100320.31
2023-01-12T04:17:48.653Z,100317.61
2023-01-12T04:20:16.731Z,100314.30
2023-01-12T04:22:49.604Z,100315.67
2023-01-12T04:25:36.483Z,100313.80
2023-01-12T04:28:04.999Z,100312.10
2023-01-12T04:30:51.887Z,100312.51
2023-01-12T04:33:20.099Z,100312.36
2023-01-12T04:35:48.121Z,100314.45
2023-01-12T04:38:18.192Z,100315.66
2023-01-12T04:40:46.446Z,100310.86
2023-01-12T04:43:14.418Z,100308.58
2023-01-12T04:45:43.802Z,100307.21
2023-01-12T04:48:30.732Z,100297.87
2023-01-12T04:51:00.912Z,100296.88
2023-01-12T04:53:48.401Z,100297.11
2023-01-12T04:56:16.555Z,100298.01
2023-01-12T04:58:44.935Z,100299.75
2023-01-12T05:01:16.445Z,100297.86
2023-01-12T05:03:45.631Z,100301.98
2023-01-12T05:06:13.947Z,100306.27
2023-01-12T05:09:01.231Z,100314.38
2023-01-12T05:11:29.797Z,100316.45
2023-01-12T05:13:58.069Z,100310.97
2023-01-12T05:16:26.243Z,100309.09
2023-01-12T05:19:13.430Z,100312.05
2023-01-12T05:21:41.437Z,100307.58
2023-01-12T05:24:09.572Z,100303.65
2023-01-12T05:26:37.770Z,100302.27
2023-01-12T05:29:05.921Z,100300.03
2023-01-12T05:31:35.123Z,100300.37
2023-01-12T05:34:03.493Z,100301.23
2023-01-12T05:36:31.804Z,100294.45
2023-01-12T05:39:19.720Z,100290.98
2023-01-12T05:42:10.648Z,100289.44
2023-01-12T05:44:38.732Z,100288.40
2023-01-12T05:47:06.859Z,100288.25
2023-01-12T05:49:34.844Z,100275.48
2023-01-12T05:52:03.202Z,100277.73
2023-01-12T05:54:31.891Z,100277.62
2023-01-12T05:57:00.064Z,100278.00
2023-01-12T05:59:28.240Z,100278.70
2023-01-12T06:01:56.237Z,100275.41
2023-01-12T06:04:25.438Z,100267.77
2023-01-12T06:07:16.520Z,100265.15
2023-01-12T06:09:44.689Z,100265.64
2023-01-12T06:12:41.961Z,100261.48
2023-01-12T06:15:10.428Z,100264.41
2023-01-12T06:17:38.495Z,100267.88
2023-01-12T06:20:07.710Z,100264.40
2023-01-12T06:22:36.095Z,100260.93
2023-01-12T06:25:04.669Z,100262.66
2023-01-12T06:27:39.571Z,100263.14
2023-01-12T06:30:12.576Z,100266.91
2023-01-12T06:32:41.885Z,100266.56
2023-01-12T06:35:18.663Z,100266.21
2023-01-12T06:37:48.061Z,100258.28
2023-01-12T06:40:16.630Z,100246.89
2023-01-12T06:42:44.707Z,100249.81
2023-01-12T06:45:13.080Z,100246.52
2023-01-12T06:47:49.561Z,100254.17
2023-01-12T06:50:17.984Z,100251.45
2023-01-12T06:52:46.109Z,100253.54
2023-01-12T06:55:16.417Z,100252.00
2023-01-12T06:58:04.771Z,100251.48
2023-01-12T07:00:33.070Z,100257.19
2023-01-12T07:03:20.589Z,100254.41
2023-01-12T07:05:48.656Z,100246.27
2023-01-12T07:08:19.290Z,100249.20
2023-01-12T07:10:47.660Z,100258.88
2023-01-12T07:13:15.647Z,100251.45
2023-01-12T07:15:44.157Z,100255.39
2023-01-12T07:18:12.590Z,100259.34
2023-01-12T07:20:40.594Z,100257.25
2023-01-12T07:23:27.268Z,100251.70
2023-01-12T07:25:57.797Z,100247.36
2023-01-12T07:28:25.887Z,100244.07
2023-01-12T07:30:59.411Z,100249.55
2023-01-12T07:33:27.641Z,100246.23
2023-01-12T07:36:00.024Z,100244.64
2023-01-12T07:38:33.324Z,100243.71
2023-01-12T07:41:02.869Z,100245.08
2023-01-12T07:43:33.781Z,100241.11
2023-01-12T07:46:02.135Z,100252.16
2023-01-12T07:48:49.040Z,100251.80
2023-01-12T07:51:17.835Z,100247.98
2023-01-12T07:53:48.253Z,100247.61
2023-01-12T07:56:16.533Z,100248.64
2023-01-12T07:58:47.978Z,100256.72
2023-01-12T08:01:16.741Z,100254.59
2023-01-12T08:03:45.569Z,100250.58
2023-01-12T08:06:13.738Z,100248.78
2023-01-12T08:09:00.998Z,100246.31
2023-01-12T08:11:47.398Z,100244.05
2023-01-12T08:14:33.752Z,100247.50
2023-01-12T08:17:02.595Z,100246.41
2023-01-12T08:19:55.785Z,100243.94
2023-01-12T08:22:30.349Z,100240.41
2023-01-12T08:25:09.209Z,100232.77
2023-01-12T08:27:41.111Z,100230.44
2023-01-12T08:30:10.186Z,100227.45
2023-01-12T08:32:39.066Z,100227.41
2023-01-12T08:35:08.293Z,100233.63
2023-01-12T08:37:39.745Z,100230.69
2023-01-12T08:40:08.983Z,100227.73
2023-01-12T08:42:37.101Z,100223.05
2023-01-12T08:45:09.396Z,100222.52
2023-01-12T08:47:38.123Z,100223.70
2023-01-12T08:50:07.568Z,100219.05
2023-01-12T08:52:36.056Z,100203.30
2023-01-12T08:55:04.605Z,100196.02
2023-01-12T08:57:32.906Z,100197.92
2023-01-12T09:00:01.094Z,100199.99
2023-01-12T09:02:29.915Z,100210.20
2023-01-12T09:04:58.156Z,100222.13
2023-01-12T09:07:26.432Z,100232.78
2023-01-12T09:09:54.497Z,100231.48
2023-01-12T09:12:24.464Z,100237.80
2023-01-12T09:14:54.184Z,100241.55
2023-01-12T09:17:23.226Z,100250.51
2023-01-12T09:19:51.625Z,100250.84
2023-01-12T09:22:19.771Z,100245.46
2023-01-12T09:24:48.055Z,100245.45
2023-01-12T09:27:16.426Z,100255.30
2023-01-12T09:29:44.496Z,100249.59
2023-01-12T09:32:12.679Z,100244.40
2023-01-12T09:34:41.019Z,100239.52
2023-01-12T09:37:09.227Z,100228.58
2023-01-12T09:39:56.266Z,100224.73
2023-01-12T09:43:09.170Z,100221.20
2023-01-12T09:45:56.113Z,100225.42
2023-01-12T09:48:25.514Z,100228.31
2023-01-12T09:51:10.031Z,100220.88
2023-01-12T09:53:40.561Z,100233.08
2023-01-12T09:56:08.641Z,100237.69
2023-01-12T09:59:08.345Z,100237.30
2023-01-12T10:01:59.475Z,100225.80
2023-01-12T10:04:32.161Z,100233.30
2023-01-12T10:07:00.360Z,100230.16
2023-01-12T10:09:28.999Z,100222.81
2023-01-12T10:12:29.532Z,100223.69
2023-01-12T10:14:58.106Z,100223.16
2023-01-12T10:17:41.992Z,100225.61
2023-01-12T10:20:34.102Z,100217.72
2023-01-12T10:23:12.502Z,100209.25
2023-01-12T10:25:45.964Z,100210.83
2023-01-12T10:28:25.896Z,100200.25
2023-01-12T10:30:56.424Z,100201.90
2023-01-12T10:33:27.644Z,100201.54
2023-01-12T10:36:00.815Z,100193.79
2023-01-12T10:38:36.567Z,100183.27
2023-01-12T10:41:10.578Z,100178.41
2023-01-12T10:43:42.561Z,100183.56
2023-01-12T10:46:19.651Z,100181.10
2023-01-12T10:48:49.967Z,100178.11
2023-01-12T10:51:30.513Z,100176.31
2023-01-12T10:54:23.278Z,100177.58
2023-01-12T10:56:59.177Z,100169.73
2023-01-12T10:59:54.760Z,100168.59
2023-01-12T11:02:26.435Z,100152.55
2023-01-12T11:04:57.934Z,100151.73
2023-01-12T11:07:50.377Z,100147.44
2023-01-12T11:10:21.247Z,100147.27
2023-01-12T11:12:59.106Z,100141.40
2023-01-12T11:15:29.156Z,100140.38
2023-01-12T11:18:03.162Z,100136.73
2023-01-12T11:20:34.522Z,100131.70
2023-01-12T11:23:05.270Z,100131.06
2023-01-12T11:25:40.234Z,100117.12
2023-01-12T11:28:39.613Z,100092.03
2023-01-12T11:31:19.853Z,100095.98
2023-01-12T11:33:55.469Z,100090.97
2023-01-12T11:36:29.403Z,100089.90
2023-01-12T11:39:06.684Z,100078.15
2023-01-12T11:42:16.141Z,100071.43
2023-01-12T11:45:06.133Z,100062.66
2023-01-12T11:47:46.336Z,100067.30
2023-01-12T11:50:21.853Z,100066.33
2023-01-12T11:52:50.579Z,100070.27
2023-01-12T11:55:42.414Z,100064.52
2023-01-12T11:58:33.823Z,100057.73
2023-01-12T12:01:26.803Z,100054.70
2023-01-12T12:04:08.675Z,100050.86
2023-01-12T12:07:02.177Z,100046.73
2023-01-12T12:09:58.472Z,100042.20
2023-01-12T12:12:41.908Z,100046.33
2023-01-12T12:15:25.438Z,100037.58
2023-01-12T12:18:14.479Z,100030.35
2023-01-12T12:20:43.087Z,100023.38
2023-01-12T12:23:36.839Z,100017.81
2023-01-12T12:26:38.477Z,100009.02
2023-01-12T12:29:21.335Z,100001.16
2023-01-12T12:32:15.953Z,99994.95
2023-01-12T12:34:56.410Z,99993.76
2023-01-12T12:37:35.401Z,99987.07
2023-01-12T12:40:30.711Z,99979.40
2023-01-12T12:43:37.916Z,99978.52
2023-01-12T12:46:21.277Z,99974.79
2023-01-12T12:49:12.982Z,99968.05
2023-01-12T12:51:41.849Z,99968.72
2023-01-12T12:54:18.324Z,99968.95
2023-01-12T12:56:47.850Z,99971.80
2023-01-12T12:59:34.543Z,99962.57
2023-01-12T13:02:53.259Z,99959.41
2023-01-12T13:05:47.312Z,99965.05
2023-01-12T13:08:27.403Z,99955.15
2023-01-12T13:10:58.959Z,99954.71
2023-01-12T13:13:29.232Z,99951.85
2023-01-12T13:16:24.145Z,99949.52
2023-01-12T13:18:52.385Z,99946.23
2023-01-12T13:21:26.820Z,99953.23
2023-01-12T13:24:23.663Z,99954.34
2023-01-12T13:26:53.981Z,99961.27
2023-01-12T13:29:28.175Z,99954.55
2023-01-12T13:32:34.147Z,99957.36
2023-01-12T13:35:03.517Z,99956.21
2023-01-12T13:37:49.071Z,99946.67
2023-01-12T13:40:18.949Z,99936.23
2023-01-12T13:43:08.174Z,99938.42
2023-01-12T13:45:37.307Z,99938.80
2023-01-12T13:48:07.638Z,99934.16
2023-01-12T13:50:37.138Z,99929.55
2023-01-12T13:53:28.837Z,99930.33
2023-01-12T13:56:00.002Z,99917.95
2023-01-12T13:58:41.310Z,99915.25
2023-01-12T14:01:24.175Z,99910.41
2023-01-12T14:04:05.049Z,99903.08
2023-01-12T14:07:03.659Z,99903.40
2023-01-12T14:09:50.628Z,99900.79
2023-01-12T14:12:37.896Z,99904.27
2023-01-12T14:15:42.025Z,99901.36
2023-01-12T14:18:15.084Z,99888.93
2023-01-12T14:20:52.089Z,99886.86
2023-01-12T14:23:21.763Z,99876.65
2023-01-12T14:26:14.706Z,99868.31
2023-01-12T14:29:01.269Z,99873.20
2023-01-12T14:31:53.321Z,99866.52
2023-01-12T14:34:35.397Z,99860.28
2023-01-12T14:37:08.067Z,99859.06
2023-01-12T14:39:56.103Z,99852.27
2023-01-12T14:42:45.368Z,99849.30
2023-01-12T14:45:50.802Z,99840.70
2023-01-12T14:48:30.850Z,99835.90
2023-01-12T14:51:14.386Z,99835.02
2023-01-12T14:53:49.091Z,99835.85
2023-01-12T14:56:35.328Z,99830.13
2023-01-12T14:59:16.921Z,99833.30
2023-01-12T15:01:45.022Z,99839.20
2023-01-12T15:04:21.014Z,99839.56
2023-01-12T15:07:01.413Z,99837.12
2023-01-12T15:09:33.612Z,99840.71
2023-01-12T15:12:41.989Z,99830.61
2023-01-12T15:15:49.890Z,99835.21
2023-01-12T15:18:38.139Z,99823.39
2023-01-12T15:21:25.012Z,99821.13
2023-01-12T15:24:11.865Z,99819.17
2023-01-12T15:26:40.648Z,99817.54
2023-01-12T15:29:09.029Z,99826.80
2023-01-12T15:31:39.009Z,99821.02
2023-01-12T15:34:10.792Z,99819.73
2023-01-12T15:36:38.875Z,99812.95
2023-01-12T15:39:06.940Z,99811.35
2023-01-12T15:41:54.982Z,99813.51
2023-01-12T15:44:23.935Z,99827.60
2023-01-12T15:46:52.938Z,99805.35
2023-01-12T15:49:21.666Z,99794.20
2023-01-12T15:51:51.060Z,99800.92
2023-01-12T15:54:20.692Z,99795.71
2023-01-12T15:56:48.836Z,99791.54
2023-01-12T15:59:16.854Z,99788.02
2023-01-12T16:01:48.133Z,99783.45
2023-01-12T16:04:42.538Z,99782.71
2023-01-12T16:07:11.861Z,99778.17
2023-01-12T16:09:41.363Z,99779.86
2023-01-12T16:12:10.510Z,99791.09
2023-01-12T16:14:39.253Z,99790.16
2023-01-12T16:17:07.400Z,99791.17
2023-01-12T16:19:41.519Z,99784.35
2023-01-12T16:22:17.975Z,99787.09
2023-01-12T16:24:46.473Z,99773.98
2023-01-12T16:27:15.267Z,99778.08
2023-01-12T16:29:43.729Z,99774.34
2023-01-12T16:32:12.627Z,99773.38
2023-01-12T16:34:41.323Z,99767.73
2023-01-12T16:37:19.121Z,99765.73
2023-01-12T16:40:06.661Z,99767.56
2023-01-12T16:42:34.648Z,99766.80
2023-01-12T16:45:03.538Z,99760.64
2023-01-12T16:47:31.977Z,99758.79
2023-01-12T16:50:00.169Z,99771.45
2023-01-12T16:52:28.431Z,99769.26
2023-01-12T16:54:56.422Z,99763.23
2023-01-12T16:57:24.572Z,99777.10
2023-01-12T16:59:52.635Z,99774.88
2023-01-12T17:02:21.397Z,99767.79
2023-01-12T17:04:52.550Z,99764.66
2023-01-12T17:07:21.152Z,99761.50
2023-01-12T17:10:08.853Z,99762.15
2023-01-12T17:12:37.158Z,99768.53
2023-01-12T17:15:06.068Z,99772.31
2023-01-12T17:17:35.858Z,99772.62
2023-01-12T17:20:05.373Z,99772.91
2023-01-12T17:22:34.437Z,99778.74
2023-01-12T17:25:03.160Z,99771.25
2023-01-12T17:27:31.320Z,99773.61
2023-01-12T17:29:59.592Z,99776.70
2023-01-12T17:32:27.837Z,99779.60
2023-01-12T17:34:56.048Z,99772.61
2023-01-12T17:37:43.190Z,99765.32
2023-01-12T17:40:12.067Z,99773.23
2023-01-12T17:43:09.814Z,99765.61
2023-01-12T17:45:45.330Z,99757.16
2023-01-12T17:48:19.690Z,99750.56
2023-01-12T17:50:48.476Z,99754.14
2023-01-12T17:53:19.159Z,99749.73
2023-01-12T17:55:49.204Z,99750.36
2023-01-12T17:58:37.274Z,99749.16
2023-01-12T18:01:14.576Z,99746.04
2023-01-12T18:03:43.159Z,99744.25
2023-01-12T18:06:15.049Z,99748.29
2023-01-12T18:08:48.490Z,99752.44
2023-01-12T18:11:19.536Z,99746.41
2023-01-12T18:13:48.178Z,99739.17
2023-01-12T18:16:17.013Z,99744.50
2023-01-12T18:18:45.486Z,99752.29
2023-01-12T18:21:16.198Z,99753.66
2023-01-12T18:23:44.859Z,99751.02
2023-01-12T18:26:16.345Z,99751.88
2023-01-12T18:28:45.250Z,99751.05
2023-01-12T18:31:16.267Z,99752.29
2023-01-12T18:33:46.312Z,99757.83
2023-01-12T18:36:17.953Z,99752.97
2023-01-12T18:38:46.244Z,99756.73
2023-01-12T18:41:54.468Z,99761.89
2023-01-12T18:44:24.337Z,99747.91
2023-01-12T18:47:16.901Z,99736.52
2023-01-12T18:49:49.420Z,99745.92
2023-01-12T18:52:55.137Z,99744.54
2023-01-12T18:55:41.989Z,99751.64
2023-01-12T18:58:10.222Z,99754.02
2023-01-12T19:00:38.622Z,99758.30
2023-01-12T19:03:26.230Z,99758.43
2023-01-12T19:06:22.209Z,99761.88
2023-01-12T19:09:10.822Z,99763.92
2023-01-12T19:11:59.095Z,99760.27
2023-01-12T19:15:05.736Z,99765.45
2023-01-12T19:17:37.222Z,99757.69
2023-01-12T19:20:08.970Z,99761.59
2023-01-12T19:22:57.484Z,99757.82
2023-01-12T19:25:46.056Z,99758.14
2023-01-12T19:28:32.790Z,99757.57
2023-01-12T19:31:20.727Z,99764.96
2023-01-12T19:33:49.082Z,99762.70
2023-01-12T19:36:17.343Z,99756.95
2023-01-12T19:38:50.717Z,99757.81
2023-01-12T19:41:39.394Z,99765.08
2023-01-12T19:44:08.280Z,99762.30
2023-01-12T19:46:36.465Z,99765.95
2023-01-12T19:49:23.803Z,99770.30
2023-01-12T19:51:51.948Z,99765.66
2023-01-12T19:54:20.024Z,99761.64
2023-01-12T19:56:49.027Z,99760.41
2023-01-12T19:59:17.201Z,99758.67
2023-01-12T20:01:45.359Z,99760.06
2023-01-12T20:04:14.050Z,99758.32
2023-01-12T20:21:11.632Z,99751.66
2023-01-12T20:23:39.783Z,99754.54
2023-01-12T20:26:09.160Z,99759.44
2023-01-12T20:28:37.662Z,99757.92
2023-01-12T20:31:10.631Z,99763.67
2023-01-12T20:33:39.374Z,99762.11
2023-01-12T20:36:17.321Z,99761.98
2023-01-12T20:38:47.354Z,99758.90
2023-01-12T20:41:15.512Z,99767.36
2023-01-12T20:43:43.930Z,99770.45
2023-01-12T20:46:14.141Z,99776.41
2023-01-12T20:48:44.649Z,99783.00
2023-01-12T20:51:18.428Z,99792.17
2023-01-12T20:53:46.667Z,99789.75
2023-01-12T20:56:14.803Z,99794.05
2023-01-12T20:58:43.322Z,99792.85
2023-01-12T21:01:13.824Z,99798.52
2023-01-12T21:03:43.366Z,99800.42
2023-01-12T21:06:14.429Z,99794.71
2023-01-12T21:08:46.416Z,99793.11
2023-01-12T21:11:17.245Z,99802.73
2023-01-12T21:13:49.537Z,99799.90
2023-01-12T21:16:19.502Z,99805.92
2023-01-12T21:18:48.338Z,99809.70
2023-01-12T21:21:16.923Z,99805.30
2023-01-12T21:23:45.294Z,99806.30
2023-01-12T21:26:13.760Z,99808.66
2023-01-12T21:29:01.995Z,99813.48
2023-01-12T21:31:48.656Z,99813.94
2023-01-12T21:34:43.733Z,99811.06
2023-01-12T21:37:12.516Z,99818.80
2023-01-12T21:39:40.691Z,99824.85
2023-01-12T21:42:27.211Z,99828.83
2023-01-12T21:44:55.366Z,99822.39
2023-01-12T21:47:23.685Z,99819.56
2023-01-12T21:49:52.025Z,99824.31
2023-01-12T21:52:20.302Z,99815.09
2023-01-12T21:54:48.475Z,99822.38
2023-01-12T21:57:16.646Z,99816.67
2023-01-12T21:59:44.819Z,99813.36
2023-01-12T22:02:13.250Z,99816.85
2023-01-12T22:04:41.467Z,99814.80
2023-01-12T22:07:09.546Z,99817.35
2023-01-12T22:09:37.821Z,99817.46
2023-01-12T22:12:06.507Z,99812.60
2023-01-12T22:14:34.618Z,99808.79
2023-01-12T22:17:02.628Z,99809.73
2023-01-12T22:19:31.536Z,99806.97
2023-01-12T22:22:18.355Z,99805.94
2023-01-12T22:24:46.735Z,99798.13
2023-01-12T22:27:14.963Z,99797.95
2023-01-12T22:30:02.838Z,99806.07
2023-01-12T22:32:31.714Z,99810.77
2023-01-12T22:35:00.131Z,99811.84
2023-01-12T22:37:29.309Z,99814.27
2023-01-12T22:39:57.477Z,99815.06
2023-01-12T22:42:45.672Z,99817.45
2023-01-12T22:45:14.168Z,99820.88
2023-01-12T22:47:47.983Z,99820.17
2023-01-12T22:50:16.822Z,99814.45
2023-01-12T22:53:03.617Z,99816.14
2023-01-12T22:55:32.006Z,99814.52
2023-01-12T22:58:00.369Z,99817.96
2023-01-12T23:00:28.415Z,99817.02
2023-01-12T23:03:03.098Z,99821.48
2023-01-12T23:05:35.977Z,99824.09
2023-01-12T23:08:11.158Z,99826.55
2023-01-12T23:10:39.460Z,99824.46
2023-01-12T23:13:25.756Z,99826.89
2023-01-12T23:15:58.294Z,99826.84
2023-01-12T23:18:29.343Z,99826.59
2023-01-12T23:21:09.998Z,99823.81
2023-01-12T23:23:39.087Z,99826.08
2023-01-12T23:26:31.373Z,99821.64
2023-01-12T23:29:03.114Z,99817.53
2023-01-12T23:31:33.739Z,99817.73
2023-01-12T23:34:02.245Z,99821.20
2023-01-12T23:36:31.173Z,99817.34
2023-01-12T23:39:02.069Z,99813.98
2023-01-12T23:41:33.317Z,99809.09
2023-01-12T23:44:04.522Z,99809.79
2023-01-12T23:46:43.111Z,99805.31
2023-01-12T23:49:11.560Z,99806.34
2023-01-12T23:51:40.666Z,99803.52
2023-01-12T23:54:18.792Z,99801.96
2023-01-12T23:56:52.379Z,99803.84
2023-01-12T23:59:21.045Z,99794.88
